Time;durP1;ratioP1;P1;durP2;ratioP2;P2;SDS_P1;SDS_P2;PMS_P1;PMS_P2;Temp;Humidity;BMP_temperature;BMP_pressure;BME280_temperature;BME280_humidity;BME280_pressure;Samples;Min_cycle;Max_cycle;Signal;HPM_P1;HPM_P2
2022/10/14 00:01:04;;;;;;;8.10;5.30;;;;;;;14.16;54.38;99975.50;4495541;31;33472;-64
2022/10/14 00:03:33;;;;;;;7.78;4.68;;;;;;;14.29;53.96;99973.44;4498951;31;34891;-65
2022/10/14 00:06:12;;;;;;;7.43;5.18;;;;;;;14.23;54.23;99973.13;4497488;31;33019;-64
2022/10/14 00:08:40;;;;;;;10.32;5.72;;;;;;;14.29;53.98;99970.75;4497052;31;34724;-64
2022/10/14 00:11:15;;;;;;;6.22;4.85;;;;;;;14.24;53.87;99967.59;4498535;31;33466;-64
2022/10/14 00:13:43;;;;;;;7.40;5.53;;;;;;;14.27;53.60;99958.41;4495362;31;33487;-64
2022/10/14 00:16:19;;;;;;;5.07;3.92;;;;;;;14.27;53.95;99967.34;4491754;31;33897;-63
2022/10/14 00:18:47;;;;;;;7.23;4.43;;;;;;;14.19;53.80;99967.16;4494028;31;34461;-64
2022/10/14 00:21:15;;;;;;;6.32;3.78;;;;;;;14.03;53.91;99967.62;4494661;31;33082;-64
2022/10/14 00:23:44;;;;;;;11.60;6.12;;;;;;;14.18;53.70;99970.81;4494385;31;33822;-64
2022/10/14 00:26:24;;;;;;;7.28;4.68;;;;;;;14.18;54.08;99968.13;4487434;31;34875;-64
2022/10/14 00:28:52;;;;;;;8.90;6.68;;;;;;;14.15;54.29;99971.06;4488116;31;34101;-64
2022/10/14 00:31:21;;;;;;;12.25;5.57;;;;;;;14.19;54.30;99968.00;4486069;31;33423;-64
2022/10/14 00:33:48;;;;;;;6.32;3.83;;;;;;;14.20;53.93;99969.69;4499619;31;32538;-63
2022/10/14 00:36:21;;;;;;;7.43;5.07;;;;;;;14.22;54.02;99956.09;4512898;31;35785;-64
2022/10/14 00:38:49;;;;;;;8.18;4.65;;;;;;;14.12;53.95;99958.72;4500849;31;34009;-64
2022/10/14 00:41:28;;;;;;;5.53;4.07;;;;;;;14.17;53.62;99953.81;4487730;31;31899;-64
2022/10/14 00:44:03;;;;;;;7.62;4.55;;;;;;;14.18;53.58;99952.81;4495458;31;33478;-64
2022/10/14 00:46:37;;;;;;;5.70;3.90;;;;;;;14.15;53.75;99958.47;4495628;31;33856;-64
2022/10/14 00:49:09;;;;;;;9.10;5.17;;;;;;;14.19;53.63;99953.69;4491204;31;34612;-65
2022/10/14 00:51:38;;;;;;;10.65;5.45;;;;;;;14.19;53.79;99951.84;4495078;31;32609;-65
2022/10/14 00:54:07;;;;;;;6.35;4.65;;;;;;;14.18;53.50;99951.97;4491180;31;32834;-64
2022/10/14 00:56:35;;;;;;;5.60;4.22;;;;;;;14.02;53.97;99952.44;4492211;31;33454;-65
2022/10/14 00:59:05;;;;;;;7.95;4.07;;;;;;;13.93;54.09;99946.03;4484619;31;34309;-64
2022/10/14 01:01:32;;;;;;;6.22;4.60;;;;;;;13.94;54.24;99950.41;4497649;31;34395;-64
2022/10/14 01:04:00;;;;;;;6.53;3.95;;;;;;;13.99;54.28;99947.31;4499061;31;34051;-64
2022/10/14 01:06:37;;;;;;;12.45;4.97;;;;;;;13.92;54.36;99944.31;4495294;31;32599;-64
2022/10/14 01:09:26;;;;;;;7.47;4.28;;;;;;;14.02;54.27;99943.50;4493546;31;35013;-64
2022/10/14 01:12:21;;;;;;;5.75;4.07;;;;;;;14.03;54.07;99943.41;4483732;31;34559;-64
2022/10/14 01:15:05;;;;;;;11.38;4.07;;;;;;;13.96;54.33;99944.88;4478969;31;34006;-64
2022/10/14 01:18:01;;;;;;;6.15;5.30;;;;;;;13.97;54.50;99939.41;4486402;31;33733;-63
2022/10/14 01:20:36;;;;;;;6.43;4.70;;;;;;;13.97;54.80;99946.63;4492793;31;34014;-65
2022/10/14 01:23:42;;;;;;;7.65;4.65;;;;;;;13.98;54.24;99943.78;4495005;31;34350;-65
2022/10/14 01:26:28;;;;;;;10.50;4.97;;;;;;;13.88;54.34;99945.56;4481297;31;36205;-65
2022/10/14 01:29:14;;;;;;;11.70;3.97;;;;;;;13.89;54.36;99941.88;4488929;31;34052;-66
2022/10/14 01:32:20;;;;;;;9.00;6.20;;;;;;;13.93;54.24;99937.06;4487122;31;34909;-65
2022/10/14 01:34:54;;;;;;;17.95;7.65;;;;;;;13.89;54.77;99936.50;4446778;32;33313;-64
2022/10/14 01:37:25;;;;;;;8.68;5.32;;;;;;;13.86;55.00;99928.69;4476249;31;35327;-65
2022/10/14 01:40:04;;;;;;;7.65;3.40;;;;;;;13.95;54.59;99930.59;4494742;31;34878;-65
2022/10/14 01:42:34;;;;;;;3.87;1.45;;;;;;;14.03;54.50;99926.38;4488990;31;33778;-66
2022/10/14 01:45:21;;;;;;;8.93;6.45;;;;;;;13.95;54.91;99929.75;4484233;31;34570;-65
2022/10/14 01:47:50;;;;;;;10.35;5.65;;;;;;;13.97;54.75;99925.94;4483560;31;33535;-65
2022/10/14 01:50:19;;;;;;;8.15;4.72;;;;;;;13.92;54.93;99917.41;4482418;31;35095;-64
2022/10/14 01:53:03;;;;;;;6.65;5.15;;;;;;;14.03;54.42;99921.88;4480405;31;34807;-64
2022/10/14 01:55:36;;;;;;;;;;;;;;;13.99;54.50;99921.25;4493781;31;33445;-64
2022/10/14 01:58:06;;;;;;;9.65;6.30;;;;;;;13.95;54.55;99927.91;4495171;31;35593;-65
2022/10/14 02:00:34;;;;;;;6.35;3.78;;;;;;;13.90;54.92;99923.88;4491123;31;33230;-65
2022/10/14 02:03:02;;;;;;;8.68;5.28;;;;;;;13.83;54.85;99920.03;4483782;31;33549;-65
2022/10/14 02:05:32;;;;;;;9.95;4.00;;;;;;;13.74;55.12;99922.53;4487210;31;34241;-65
2022/10/14 02:08:17;;;;;;;9.88;4.35;;;;;;;13.81;55.10;99922.00;4479970;31;32873;-65
2022/10/14 02:11:01;;;;;;;3.92;3.40;;;;;;;13.81;55.06;99930.09;4479825;31;33700;-65
2022/10/14 02:14:03;;;;;;;6.93;4.95;;;;;;;13.77;55.25;99923.22;4493399;31;32563;-64
2022/10/14 02:16:37;;;;;;;11.30;5.57;;;;;;;13.89;54.88;99925.72;4493534;31;33373;-65
2022/10/14 02:19:23;;;;;;;8.25;5.47;;;;;;;13.87;54.47;99922.34;4489093;31;32683;-64
2022/10/14 02:21:57;;;;;;;9.15;3.78;;;;;;;13.85;54.35;99920.75;4490340;31;34877;-64
2022/10/14 02:24:43;;;;;;;7.95;4.25;;;;;;;13.87;54.35;99916.09;4484963;31;34929;-64
2022/10/14 02:27:14;;;;;;;8.00;4.15;;;;;;;13.81;54.74;99914.78;4479820;31;33635;-64
2022/10/14 02:29:43;;;;;;;10.15;5.30;;;;;;;13.85;54.61;99920.75;4484059;31;35559;-64
2022/10/14 02:32:13;;;;;;;10.02;4.35;;;;;;;13.88;54.37;99912.41;4484939;31;34060;-64
2022/10/14 02:34:45;;;;;;;8.10;5.82;;;;;;;13.78;54.85;99916.87;4488021;31;34133;-63
2022/10/14 02:37:14;;;;;;;6.10;3.22;;;;;;;13.77;54.90;99920.53;4495401;31;33329;-64
2022/10/14 02:39:46;;;;;;;6.30;5.07;;;;;;;13.80;54.78;99913.06;4478526;31;32511;-64
2022/10/14 02:42:13;;;;;;;8.00;4.45;;;;;;;13.90;54.42;99922.06;4492323;31;33952;-64
2022/10/14 02:44:55;;;;;;;9.23;4.62;;;;;;;13.80;54.51;99915.75;4492436;31;32536;-64
2022/10/14 02:47:23;;;;;;;5.68;4.05;;;;;;;13.83;54.65;99920.03;4493834;31;33618;-65
2022/10/14 02:49:51;;;;;;;9.40;4.53;;;;;;;13.82;54.71;99912.94;4493305;31;35079;-64
2022/10/14 02:52:19;;;;;;;6.53;4.30;;;;;;;13.85;54.70;99916.22;4494036;31;34120;-65
2022/10/14 02:54:47;;;;;;;6.45;3.72;;;;;;;13.85;54.83;99915.38;4494224;31;32701;-63
2022/10/14 02:57:15;;;;;;;5.43;2.92;;;;;;;13.89;54.56;99914.12;4498667;31;33463;-64
2022/10/14 02:59:43;;;;;;;8.30;3.62;;;;;;;13.87;54.75;99913.41;4498331;31;35051;-63
2022/10/14 03:02:10;;;;;;;8.20;3.70;;;;;;;13.93;54.56;99911.06;4498205;31;34053;-63
2022/10/14 03:04:38;;;;;;;6.68;3.62;;;;;;;13.95;54.43;99903.69;4488722;31;33815;-64
2022/10/14 03:07:06;;;;;;;11.00;5.18;;;;;;;13.99;54.51;99905.09;4494742;31;32248;-63
2022/10/14 03:09:34;;;;;;;11.60;5.65;;;;;;;14.06;54.15;99909.97;4498327;31;35119;-64
2022/10/14 03:12:03;;;;;;;7.12;3.53;;;;;;;13.73;55.68;99914.56;4493837;31;35111;-63
2022/10/14 03:14:30;;;;;;;8.88;3.30;;;;;;;13.75;55.79;99910.78;4492068;31;34045;-64
2022/10/14 03:16:58;;;;;;;8.88;5.90;;;;;;;13.78;55.84;99920.44;4488288;31;34354;-64
2022/10/14 03:19:28;;;;;;;11.57;6.53;;;;;;;13.85;55.53;99912.69;4490989;31;34768;-64
2022/10/14 03:21:55;;;;;;;10.05;4.43;;;;;;;13.79;55.78;99908.66;4487646;31;35149;-64
2022/10/14 03:24:24;;;;;;;5.70;3.95;;;;;;;13.88;55.51;99912.41;4486668;31;34138;-64
2022/10/14 03:26:56;;;;;;;6.20;4.20;;;;;;;13.92;55.22;99905.78;4494403;31;33498;-65
2022/10/14 03:29:24;;;;;;;7.25;4.60;;;;;;;13.95;55.22;99908.22;4494696;31;33525;-65
2022/10/14 03:31:52;;;;;;;7.40;5.05;;;;;;;13.92;55.43;99908.47;4488344;31;34961;-64
2022/10/14 03:34:20;;;;;;;6.50;3.97;;;;;;;13.93;55.54;99904.78;4493087;31;34703;-64
2022/10/14 03:36:49;;;;;;;5.65;3.12;;;;;;;13.87;55.81;99900.81;4497979;31;32036;-64
2022/10/14 03:39:17;;;;;;;10.50;4.43;;;;;;;14.02;55.43;99898.62;4494822;31;33984;-64
2022/10/14 03:41:45;;;;;;;7.32;4.50;;;;;;;14.08;55.41;99900.78;4493791;31;33982;-64
2022/10/14 03:44:14;;;;;;;7.12;4.60;;;;;;;14.09;55.40;99907.00;4494383;31;34754;-65
2022/10/14 03:46:42;;;;;;;9.13;5.82;;;;;;;14.12;55.43;99898.66;4508494;31;34221;-64
2022/10/14 03:49:11;;;;;;;4.35;3.08;;;;;;;14.16;55.50;99895.59;4495627;31;33472;-65
2022/10/14 03:51:39;;;;;;;5.85;4.65;;;;;;;14.14;55.61;99904.78;4497432;31;33995;-64
2022/10/14 03:54:06;;;;;;;5.37;3.70;;;;;;;14.23;55.44;99901.28;4487516;31;33853;-65
2022/10/14 03:56:34;;;;;;;7.43;4.32;;;;;;;14.24;55.61;99894.91;4495448;31;33309;-64
2022/10/14 03:59:02;;;;;;;5.87;3.05;;;;;;;14.28;55.49;99893.66;4497108;31;33690;-64
2022/10/14 04:01:31;;;;;;;5.43;3.67;;;;;;;14.27;55.54;99889.25;4498045;31;32982;-64
2022/10/14 04:03:59;;;;;;;10.43;4.90;;;;;;;14.30;55.46;99894.37;4493619;31;33915;-64
2022/10/14 04:06:27;;;;;;;9.48;4.82;;;;;;;14.33;55.19;99883.34;4492616;31;33493;-64
2022/10/14 04:08:55;;;;;;;7.78;4.55;;;;;;;14.42;54.76;99884.38;4496796;31;33478;-64
2022/10/14 04:11:23;;;;;;;5.75;3.47;;;;;;;14.40;54.90;99880.94;4488324;31;34844;-63
2022/10/14 04:13:57;;;;;;;6.03;3.08;;;;;;;14.45;54.78;99882.25;4488862;31;34644;-65
2022/10/14 04:16:26;;;;;;;6.18;4.32;;;;;;;14.42;54.65;99881.69;4484765;31;34418;-64
2022/10/14 04:18:54;;;;;;;4.93;3.53;;;;;;;14.27;54.92;99877.63;4489815;31;33929;-64
2022/10/14 04:21:21;;;;;;;7.30;4.32;;;;;;;14.38;54.30;99874.84;4483635;31;33828;-63
2022/10/14 04:23:49;;;;;;;4.80;3.62;;;;;;;14.35;54.73;99880.50;4488959;31;33815;-65
2022/10/14 04:26:20;;;;;;;8.18;5.30;;;;;;;14.32;54.73;99880.78;4486388;31;32164;-64
2022/10/14 04:28:49;;;;;;;8.88;4.53;;;;;;;14.35;54.94;99880.50;4486777;31;34417;-67
2022/10/14 04:31:21;;;;;;;8.77;4.37;;;;;;;14.31;54.89;99876.38;4488360;31;34082;-66
2022/10/14 04:33:50;;;;;;;10.40;5.93;;;;;;;14.32;54.96;99873.56;4487915;31;33991;-68
2022/10/14 04:36:18;;;;;;;4.78;3.75;;;;;;;14.39;54.57;99873.88;4488155;31;34308;-66
2022/10/14 04:38:46;;;;;;;6.05;4.15;;;;;;;14.36;54.18;99874.13;4485653;31;34005;-67
2022/10/14 04:41:13;;;;;;;8.48;5.25;;;;;;;14.30;54.61;99883.59;4478177;31;33511;-67
2022/10/14 04:43:43;;;;;;;8.40;6.03;;;;;;;14.36;54.24;99883.06;4490893;31;34079;-66
2022/10/14 04:46:12;;;;;;;7.05;5.22;;;;;;;14.33;54.27;99877.09;4492831;31;32613;-66
2022/10/14 04:48:39;;;;;;;5.22;3.50;;;;;;;14.37;54.35;99873.16;4491840;31;34410;-66
2022/10/14 04:51:07;;;;;;;6.25;4.20;;;;;;;14.29;54.68;99873.84;4488945;31;32751;-65
2022/10/14 04:53:36;;;;;;;5.22;3.53;;;;;;;14.38;54.18;99882.91;4494410;31;35117;-66
2022/10/14 04:56:05;;;;;;;6.50;4.18;;;;;;;14.40;54.00;99878.25;4492914;31;35176;-66
2022/10/14 04:58:36;;;;;;;7.28;4.72;;;;;;;14.24;54.38;99881.44;4493747;31;34312;-66
2022/10/14 05:01:03;;;;;;;5.57;3.92;;;;;;;14.19;54.53;99884.56;4493930;31;35304;-66
2022/10/14 05:03:31;;;;;;;17.48;5.87;;;;;;;14.10;54.62;99882.66;4483176;31;34648;-65
2022/10/14 05:05:58;;;;;;;5.93;3.85;;;;;;;14.16;54.63;99878.59;4489812;31;31869;-66
2022/10/14 05:08:27;;;;;;;3.80;3.33;;;;;;;14.14;55.00;99886.78;4483067;31;33320;-66
2022/10/14 05:10:54;;;;;;;13.00;6.90;;;;;;;14.17;54.92;99885.66;4491792;31;35239;-66
2022/10/14 05:13:25;;;;;;;7.60;6.15;;;;;;;14.23;54.50;99876.22;4479571;31;33445;-66
2022/10/14 05:15:53;;;;;;;9.68;4.85;;;;;;;14.15;55.05;99880.41;4489831;31;34380;-66
2022/10/14 05:18:21;;;;;;;12.25;4.65;;;;;;;14.21;54.91;99876.34;4495421;31;34601;-65
2022/10/14 05:20:49;;;;;;;6.18;4.15;;;;;;;14.25;54.92;99876.91;4489644;31;34887;-66
2022/10/14 05:23:17;;;;;;;10.45;5.22;;;;;;;14.02;55.88;99879.78;4487206;31;33248;-65
2022/10/14 05:25:45;;;;;;;8.18;6.07;;;;;;;14.27;55.02;99877.63;4492500;31;32028;-66
2022/10/14 05:28:13;;;;;;;19.73;5.40;;;;;;;14.35;54.75;99883.19;4495631;31;33681;-64
2022/10/14 05:30:41;;;;;;;6.97;4.32;;;;;;;14.10;55.77;99889.91;4483602;31;34004;-64
2022/10/14 05:33:10;;;;;;;10.50;5.62;;;;;;;14.27;55.64;99891.09;4486698;31;33414;-64
2022/10/14 05:35:39;;;;;;;6.57;3.42;;;;;;;14.34;55.04;99893.09;4488414;31;34483;-64
2022/10/14 05:38:26;;;;;;;11.60;4.60;;;;;;;14.29;55.25;99891.84;4491037;31;33129;-66
2022/10/14 05:40:54;;;;;;;5.43;3.65;;;;;;;14.30;55.18;99894.37;4490641;31;34033;-64
2022/10/14 05:43:26;;;;;;;10.73;6.18;;;;;;;14.34;54.99;99890.41;4487290;31;33842;-66
2022/10/14 05:45:59;;;;;;;6.18;3.87;;;;;;;14.38;55.23;99893.69;4493697;31;33689;-66
2022/10/14 05:48:27;;;;;;;8.10;4.65;;;;;;;14.43;54.89;99895.00;4491978;31;33522;-66
2022/10/14 05:50:55;;;;;;;7.22;4.93;;;;;;;14.43;54.86;99896.84;4499046;31;35112;-65
2022/10/14 05:53:24;;;;;;;8.80;5.82;;;;;;;14.42;54.89;99904.06;4488765;31;34626;-64
2022/10/14 05:56:00;;;;;;;8.98;5.70;;;;;;;14.43;54.97;99897.69;4498141;31;32297;-67
2022/10/14 05:58:27;;;;;;;5.07;4.32;;;;;;;14.32;56.02;99907.72;4489588;31;34862;-65
2022/10/14 06:01:00;;;;;;;5.95;4.28;;;;;;;14.51;56.01;99907.84;4485966;31;33819;-64
2022/10/14 06:03:28;;;;;;;8.52;5.25;;;;;;;14.66;55.51;99916.38;4488155;31;34935;-65
2022/10/14 06:05:55;;;;;;;18.10;6.82;;;;;;;14.68;55.40;99907.16;4491670;31;32760;-65
2022/10/14 06:08:23;;;;;;;4.20;2.75;;;;;;;14.75;55.44;99917.41;4484299;31;33873;-65
2022/10/14 06:10:51;;;;;;;6.80;3.65;;;;;;;14.85;55.43;99913.72;4492865;31;34214;-66
2022/10/14 06:13:20;;;;;;;6.12;4.93;;;;;;;14.86;55.70;99918.16;4498055;31;33862;-66
2022/10/14 06:15:47;;;;;;;8.95;5.20;;;;;;;14.95;55.74;99918.28;4504199;31;33448;-66
2022/10/14 06:18:16;;;;;;;5.97;4.70;;;;;;;15.05;55.56;99920.00;4493100;31;34809;-66
2022/10/14 06:20:43;;;;;;;13.05;5.90;;;;;;;14.98;56.41;99924.25;4483333;31;34921;-65
2022/10/14 06:23:10;;;;;;;6.50;3.25;;;;;;;15.17;55.99;99922.59;4493646;31;33863;-64
2022/10/14 06:25:39;;;;;;;8.57;4.93;;;;;;;15.23;55.89;99922.03;4488129;31;32426;-63
2022/10/14 06:28:06;;;;;;;9.52;7.62;;;;;;;15.34;55.48;99922.78;4495977;31;31545;-62
2022/10/14 06:30:33;;;;;;;13.40;7.03;;;;;;;15.38;55.41;99928.72;4490435;31;33775;-64
2022/10/14 06:33:01;;;;;;;9.65;5.90;;;;;;;15.41;55.42;99920.38;4491719;31;34080;-65
2022/10/14 06:35:29;;;;;;;10.43;6.30;;;;;;;15.44;55.16;99930.00;4491512;31;33546;-64
2022/10/14 06:37:56;;;;;;;9.52;5.28;;;;;;;15.48;55.36;99932.28;4487414;31;33867;-64
2022/10/14 06:40:24;;;;;;;12.85;6.03;;;;;;;15.53;55.19;99926.44;4488705;31;34979;-64
2022/10/14 06:42:52;;;;;;;18.48;7.07;;;;;;;15.59;55.11;99928.59;4494285;31;34047;-64
2022/10/14 06:45:20;;;;;;;9.95;6.45;;;;;;;15.65;55.10;99925.31;4497903;31;34091;-65
2022/10/14 06:47:47;;;;;;;8.35;5.22;;;;;;;15.69;55.12;99929.47;4488348;31;32228;-64
2022/10/14 06:50:15;;;;;;;11.18;6.15;;;;;;;15.71;55.44;99932.87;4498047;31;35321;-65
2022/10/14 06:52:46;;;;;;;17.67;7.93;;;;;;;15.78;55.70;99934.00;4498725;31;33625;-65
2022/10/14 06:55:14;;;;;;;9.80;6.95;;;;;;;15.93;55.64;99936.28;4504568;31;33298;-65
2022/10/14 06:57:42;;;;;;;11.43;6.70;;;;;;;16.05;55.58;99935.09;4499638;31;33636;-65
2022/10/14 07:00:10;;;;;;;15.20;8.63;;;;;;;16.09;56.15;99939.22;4499156;31;34148;-63
2022/10/14 07:02:38;;;;;;;17.33;8.75;;;;;;;16.05;56.53;99933.25;4501028;31;32713;-62
2022/10/14 07:05:06;;;;;;;12.30;7.78;;;;;;;16.10;56.68;99935.50;4500619;31;32338;-62
2022/10/14 07:07:33;;;;;;;9.18;6.55;;;;;;;16.03;56.88;99931.69;4505106;31;33714;-62
2022/10/14 07:10:01;;;;;;;26.42;9.68;;;;;;;16.08;56.87;99940.19;4511549;31;34181;-63
2022/10/14 07:12:28;;;;;;;16.73;7.97;;;;;;;16.09;56.88;99931.13;4501626;31;34611;-62
2022/10/14 07:14:56;;;;;;;9.27;6.95;;;;;;;16.30;56.45;99928.22;4501147;31;32105;-62
2022/10/14 07:17:24;;;;;;;14.10;7.03;;;;;;;16.25;56.62;99931.38;4497915;31;35054;-63
2022/10/14 07:19:51;;;;;;;11.75;7.85;;;;;;;16.38;56.19;99931.03;4498661;31;34805;-62
2022/10/14 07:22:19;;;;;;;16.10;8.30;;;;;;;16.43;56.77;99934.13;4499245;31;33847;-63
2022/10/14 07:24:47;;;;;;;15.77;9.15;;;;;;;16.66;56.34;99937.34;4501402;31;34829;-63
2022/10/14 07:27:19;;;;;;;15.73;9.80;;;;;;;16.46;56.71;99935.69;4493697;31;33810;-63
2022/10/14 07:29:47;;;;;;;14.13;8.00;;;;;;;16.78;55.96;99938.00;4496390;31;32800;-63
2022/10/14 07:32:15;;;;;;;12.18;7.90;;;;;;;16.95;55.70;99936.34;4493263;31;33972;-63
2022/10/14 07:34:42;;;;;;;14.77;9.05;;;;;;;16.79;56.16;99930.75;4484920;31;33237;-63
2022/10/14 07:37:10;;;;;;;14.25;7.97;;;;;;;16.96;56.23;99930.78;4481837;31;35035;-63
2022/10/14 07:39:37;;;;;;;18.37;10.05;;;;;;;16.95;55.57;99928.22;4486159;31;33616;-63
2022/10/14 07:42:05;;;;;;;13.13;6.90;;;;;;;16.74;56.82;99923.91;4485015;32;34456;-63
2022/10/14 07:44:33;;;;;;;26.12;7.18;;;;;;;16.82;56.22;99931.31;4481747;31;33065;-62
2022/10/14 07:47:02;;;;;;;13.45;8.77;;;;;;;16.95;55.36;99931.81;4495600;31;32781;-63
2022/10/14 07:49:29;;;;;;;15.40;8.02;;;;;;;16.71;55.68;99931.47;4488128;31;35327;-63
2022/10/14 07:51:57;;;;;;;11.85;7.75;;;;;;;16.78;54.88;99924.47;4493124;31;34029;-63
2022/10/14 07:54:25;;;;;;;14.68;8.23;;;;;;;16.74;55.34;99931.16;4490284;31;34263;-63
2022/10/14 07:56:53;;;;;;;16.30;7.80;;;;;;;16.83;55.23;99929.47;4492130;31;33761;-63
2022/10/14 07:59:20;;;;;;;15.10;7.62;;;;;;;16.60;55.74;99926.28;4501171;31;35113;-63
2022/10/14 08:01:49;;;;;;;14.60;8.00;;;;;;;16.12;56.49;99920.03;4499559;31;34705;-63
2022/10/14 08:04:17;;;;;;;12.55;7.05;;;;;;;16.46;56.20;99919.47;4502058;31;33292;-63
2022/10/14 08:06:48;;;;;;;9.63;5.82;;;;;;;16.59;55.44;99913.75;4507227;31;34728;-63
2022/10/14 08:09:17;;;;;;;15.65;8.15;;;;;;;16.70;55.29;99924.37;4500737;31;33848;-63
2022/10/14 08:11:46;;;;;;;12.27;6.75;;;;;;;16.65;55.99;99926.66;4509142;31;35160;-62
2022/10/14 08:14:13;;;;;;;8.30;5.65;;;;;;;17.01;55.51;99927.63;4501300;31;33419;-63
2022/10/14 08:16:41;;;;;;;11.65;7.05;;;;;;;16.79;55.44;99920.81;4500849;31;32582;-63
2022/10/14 08:19:10;;;;;;;23.12;8.80;;;;;;;16.88;55.06;99917.16;4501447;31;34053;-63
2022/10/14 08:21:42;;;;;;;11.77;8.57;;;;;;;16.72;55.98;99919.66;4497368;31;33747;-63
2022/10/14 08:24:10;;;;;;;10.82;7.68;;;;;;;17.29;54.37;99912.22;4501116;31;32346;-64
2022/10/14 08:26:59;;;;;;;14.35;8.20;;;;;;;17.40;54.64;99909.28;4502550;31;33841;-64
2022/10/14 08:29:27;;;;;;;22.23;11.12;;;;;;;17.16;54.84;99904.47;4489341;31;32935;-64
2022/10/14 08:31:55;;;;;;;13.45;9.43;;;;;;;17.22;55.31;99908.44;4490113;31;34098;-63
2022/10/14 08:34:23;;;;;;;15.55;10.20;;;;;;;17.68;54.90;99909.19;4489516;31;32867;-63
2022/10/14 08:36:51;;;;;;;11.98;6.68;;;;;;;17.46;54.43;99895.16;4494650;31;33788;-65
2022/10/14 08:39:19;;;;;;;11.90;8.00;;;;;;;17.33;54.82;99897.38;4493089;31;35199;-65
2022/10/14 08:41:59;;;;;;;21.65;9.60;;;;;;;17.61;55.44;99894.59;4484740;31;33271;-65
2022/10/14 08:44:34;;;;;;;9.10;7.18;;;;;;;18.00;53.65;99896.94;4486352;31;33442;-65
2022/10/14 08:47:03;;;;;;;11.93;7.18;;;;;;;17.84;53.69;99894.97;4482421;31;32261;-64
2022/10/14 08:49:36;;;;;;;9.05;5.90;;;;;;;17.69;53.55;99898.22;4485576;31;35159;-64
2022/10/14 08:52:13;;;;;;;18.90;6.85;;;;;;;17.68;53.50;99903.78;4488180;31;33693;-64
2022/10/14 08:54:44;;;;;;;10.20;7.00;;;;;;;17.77;53.24;99902.87;4483849;31;33324;-66
2022/10/14 08:57:14;;;;;;;13.88;8.68;;;;;;;17.74;53.26;99903.16;4494489;31;32730;-66
2022/10/14 08:59:42;;;;;;;17.50;8.75;;;;;;;18.06;53.50;99899.00;4487006;31;34110;-66
2022/10/14 09:02:18;;;;;;;13.25;8.07;;;;;;;18.25;52.56;99909.63;4487734;31;34073;-64
2022/10/14 09:04:46;;;;;;;13.00;9.32;;;;;;;18.37;52.51;99904.81;4495374;31;33170;-64
2022/10/14 09:07:18;;;;;;;14.70;9.75;;;;;;;18.74;51.66;99901.78;4485608;31;34728;-64
2022/10/14 09:09:50;;;;;;;15.07;9.88;;;;;;;18.70;51.95;99900.38;4500940;31;34012;-65
2022/10/14 09:12:23;;;;;;;15.98;9.77;;;;;;;18.74;52.51;99895.50;4492893;31;143027;-64
2022/10/14 09:15:07;;;;;;;19.33;11.57;;;;;;;18.83;51.41;99900.78;4488783;31;32996;-64
2022/10/14 09:17:40;;;;;;;19.85;11.68;;;;;;;18.98;51.12;99908.31;4493173;31;34570;-64
2022/10/14 09:20:17;;;;;;;19.60;10.35;;;;;;;19.22;50.75;99900.22;4515365;31;35274;-64
2022/10/14 09:22:56;;;;;;;19.05;10.95;;;;;;;19.02;51.03;99899.66;4498314;31;33818;-65
2022/10/14 09:25:23;;;;;;;20.77;12.40;;;;;;;19.33;50.41;99904.50;4499910;31;33375;-64
2022/10/14 09:27:51;;;;;;;42.67;12.02;;;;;;;18.83;51.20;99905.38;4494657;31;33904;-65
2022/10/14 09:30:19;;;;;;;19.42;14.40;;;;;;;19.23;50.91;99907.38;4485745;31;33452;-64
2022/10/14 09:32:54;;;;;;;18.70;11.70;;;;;;;18.88;51.13;99904.91;4485580;31;33851;-63
2022/10/14 09:35:39;;;;;;;18.60;8.52;;;;;;;19.18;50.60;99901.56;4493169;31;33419;-63
2022/10/14 09:38:07;;;;;;;18.90;11.68;;;;;;;19.18;50.42;99896.16;4498159;31;34009;-63
2022/10/14 09:40:38;;;;;;;17.77;11.07;;;;;;;19.22;50.24;99902.94;4492809;31;33044;-64
2022/10/14 09:43:08;;;;;;;17.50;11.93;;;;;;;18.78;52.04;99896.88;4493026;31;32634;-64
2022/10/14 09:45:54;;;;;;;17.75;12.30;;;;;;;18.74;52.14;99907.19;4493701;31;32391;-64
2022/10/14 09:48:28;;;;;;;20.25;13.10;;;;;;;19.30;50.72;99896.69;4486745;31;32852;-63
2022/10/14 09:50:56;;;;;;;22.55;13.50;;;;;;;19.13;51.12;99895.78;4486870;31;34053;-63
2022/10/14 09:53:30;;;;;;;15.88;8.93;;;;;;;19.30;51.47;99896.69;4480421;31;34021;-64
2022/10/14 09:56:00;;;;;;;19.90;9.88;;;;;;;19.08;51.99;99899.00;4491135;31;33582;-63
2022/10/14 09:58:52;;;;;;;16.08;9.98;;;;;;;19.27;52.08;99895.16;4487619;31;33694;-63
2022/10/14 10:01:25;;;;;;;23.83;14.73;;;;;;;19.66;50.88;99897.25;4492527;31;34716;-63
2022/10/14 10:03:54;;;;;;;19.60;12.52;;;;;;;19.27;51.47;99887.00;4495617;31;33813;-63
2022/10/14 10:06:26;;;;;;;12.60;9.07;;;;;;;19.39;51.33;99890.25;4487571;31;33405;-63
2022/10/14 10:08:54;;;;;;;18.02;11.48;;;;;;;19.43;51.67;99896.19;4485768;31;35047;-63
2022/10/14 10:11:27;;;;;;;21.23;12.48;;;;;;;19.77;50.24;99891.50;4485262;31;34289;-63
2022/10/14 10:13:55;;;;;;;14.48;9.27;;;;;;;19.80;50.03;99894.87;4490445;31;33653;-63
2022/10/14 10:16:31;;;;;;;17.70;11.30;;;;;;;19.71;50.25;99888.59;4497262;31;34466;-63
2022/10/14 10:19:22;;;;;;;17.50;11.45;;;;;;;19.67;51.15;99895.37;4490838;31;33402;-63
2022/10/14 10:21:50;;;;;;;23.48;15.93;;;;;;;19.95;50.20;99895.88;4491902;31;34032;-63
2022/10/14 10:24:21;;;;;;;18.75;12.13;;;;;;;19.97;49.50;99888.41;4494958;31;33560;-63
2022/10/14 10:26:55;;;;;;;18.25;9.60;;;;;;;19.85;50.18;99889.78;4494230;31;33499;-63
2022/10/14 10:29:33;;;;;;;15.02;10.88;;;;;;;19.96;49.13;99892.13;4485774;31;33767;-63
2022/10/14 10:32:41;;;;;;;17.75;13.40;;;;;;;19.70;49.79;99885.03;4484915;31;33795;-63
2022/10/14 10:35:28;;;;;;;19.33;12.77;;;;;;;20.05;49.13;99880.25;4453660;31;34688;-63
2022/10/14 10:37:59;;;;;;;14.70;8.88;;;;;;;20.08;49.01;99877.19;4491842;31;32075;-63
2022/10/14 10:40:35;;;;;;;17.17;10.73;;;;;;;20.00;49.32;99871.78;4498656;31;34000;-62
2022/10/14 10:43:32;;;;;;;17.65;10.20;;;;;;;20.03;48.32;99874.13;4496990;31;35263;-63
2022/10/14 10:46:13;;;;;;;15.70;9.57;;;;;;;19.96;49.43;99870.41;4496632;31;33894;-63
2022/10/14 10:48:43;;;;;;;16.60;11.00;;;;;;;20.34;48.79;99866.06;4484809;32;32581;-63
2022/10/14 10:51:35;;;;;;;15.55;11.12;;;;;;;20.22;49.21;99865.63;4489054;31;32661;-65
2022/10/14 10:54:24;;;;;;;16.05;8.25;;;;;;;20.18;48.39;99869.69;4493262;31;33856;-64
2022/10/14 10:56:54;;;;;;;16.55;12.05;;;;;;;20.50;47.94;99861.59;4501377;31;34867;-64
2022/10/14 10:59:25;;;;;;;18.67;12.68;;;;;;;20.53;48.47;99861.28;4491532;31;32626;-64
2022/10/14 11:02:02;;;;;;;20.67;14.13;;;;;;;20.47;48.22;99860.06;4499446;31;34192;-64
2022/10/14 11:04:45;;;;;;;19.73;12.82;;;;;;;20.20;48.80;99856.78;4501014;31;34136;-64
2022/10/14 11:13:40;;;;;;;22.42;15.25;;;;;;;20.26;48.31;99852.53;4499082;31;33719;-64
2022/10/14 11:16:16;;;;;;;18.20;11.73;;;;;;;20.23;48.56;99851.00;4490293;31;32877;-63
2022/10/14 11:18:49;;;;;;;17.05;10.68;;;;;;;20.40;48.41;99848.22;4493469;31;33831;-65
2022/10/14 11:21:20;;;;;;;18.65;13.20;;;;;;;20.34;48.55;99844.31;4487551;31;33017;-65
2022/10/14 11:24:12;;;;;;;19.27;13.93;;;;;;;20.58;47.43;99837.16;4486860;31;33834;-64
2022/10/14 11:26:56;;;;;;;17.23;10.95;;;;;;;20.67;47.35;99828.78;4487390;31;35271;-64
2022/10/14 11:29:53;;;;;;;22.92;15.73;;;;;;;20.95;47.23;99828.25;4484871;31;35038;-64
2022/10/14 11:32:42;;;;;;;16.80;10.55;;;;;;;20.96;46.20;99831.81;4490122;31;33462;-64
2022/10/14 11:35:17;;;;;;;19.70;14.48;;;;;;;20.96;46.10;99824.50;4485617;31;32377;-64
2022/10/14 11:37:52;;;;;;;17.10;11.00;;;;;;;20.84;46.40;99825.97;4489708;31;34185;-62
2022/10/14 11:40:38;;;;;;;20.12;11.70;;;;;;;20.81;46.47;99821.72;4490805;31;33777;-61
2022/10/14 11:43:21;;;;;;;24.63;15.23;;;;;;;20.58;47.29;99818.94;4495363;31;32383;-61
2022/10/14 11:45:58;;;;;;;27.52;16.52;;;;;;;20.48;48.46;99815.53;4496979;31;33900;-62
2022/10/14 11:48:31;;;;;;;19.10;10.95;;;;;;;20.88;47.15;99810.97;4498672;31;35582;-62
2022/10/14 11:51:10;;;;;;;22.48;15.40;;;;;;;21.08;46.61;99806.72;4487447;31;33842;-62
2022/10/14 11:53:57;;;;;;;13.02;8.90;;;;;;;20.83;47.46;99808.75;4483411;31;34257;-62
2022/10/14 11:56:57;;;;;;;15.02;11.32;;;;;;;21.01;46.84;99807.66;4486641;31;33775;-62